createdAt,value
2022-10-25T00:01:53.595Z,100051.66
2022-10-25T00:06:48.124Z,100033.59
2022-10-25T00:09:14.909Z,100047.50
2022-10-25T00:11:41.699Z,100050.81
2022-10-25T00:14:08.549Z,100045.50
2022-10-25T00:16:38.466Z,100033.72
2022-10-25T00:19:05.916Z,100033.38
2022-10-25T00:21:32.744Z,100030.53
2022-10-25T00:23:59.502Z,100034.06
2022-10-25T00:26:26.246Z,100039.69
2022-10-25T00:28:55.287Z,100030.06
2022-10-25T00:31:22.716Z,100025.44
2022-10-25T00:33:49.589Z,100036.56
2022-10-25T00:36:19.901Z,100036.69
2022-10-25T00:38:46.709Z,100036.00
2022-10-25T00:41:15.976Z,100037.31
2022-10-25T00:43:51.306Z,100024.00
2022-10-25T00:46:21.034Z,100031.09
2022-10-25T00:49:03.669Z,100030.28
2022-10-25T00:51:58.913Z,100021.31
2022-10-25T00:54:31.931Z,100011.13
2022-10-25T00:57:01.841Z,100001.13
2022-10-25T00:59:29.104Z,99997.91
2022-10-25T01:01:56.602Z,100001.50
2022-10-25T01:04:27.987Z,99993.84
2022-10-25T01:06:55.189Z,99981.84
2022-10-25T01:09:26.017Z,99990.47
2022-10-25T01:11:52.851Z,99992.47
2022-10-25T01:14:21.137Z,99992.16
2022-10-25T01:17:13.028Z,99979.22
2022-10-25T01:19:48.569Z,99986.50
2022-10-25T01:22:18.334Z,99982.19
2022-10-25T01:25:04.335Z,99967.88
2022-10-25T01:27:45.687Z,99968.81
2022-10-25T01:30:20.364Z,99969.78
2022-10-25T01:32:47.260Z,99965.78
2022-10-25T01:35:18.963Z,99961.81
2022-10-25T01:38:00.769Z,99955.84
2022-10-25T01:41:12.389Z,99951.75
2022-10-25T01:43:45.650Z,99950.19
2022-10-25T01:46:21.415Z,99947.38
2022-10-25T01:48:59.135Z,99949.59
2022-10-25T01:51:27.815Z,99941.72
2022-10-25T01:53:54.931Z,99945.53
2022-10-25T01:56:29.633Z,99935.19
2022-10-25T01:59:30.865Z,99934.94
2022-10-25T02:02:31.061Z,99928.31
2022-10-25T02:05:17.563Z,99927.06
2022-10-25T02:07:56.665Z,99928.47
2022-10-25T02:10:26.426Z,99924.09
2022-10-25T02:13:01.725Z,99913.03
2022-10-25T02:15:34.047Z,99904.00
2022-10-25T02:18:05.270Z,99908.59
2022-10-25T02:20:34.879Z,99893.16
2022-10-25T02:23:04.762Z,99886.69
2022-10-25T02:25:37.389Z,99888.81
2022-10-25T02:28:09.132Z,99879.16
2022-10-25T02:30:38.621Z,99883.66
2022-10-25T02:33:05.709Z,99875.38
2022-10-25T02:35:32.495Z,99877.19
2022-10-25T02:37:59.288Z,99878.00
2022-10-25T02:40:26.174Z,99868.91
2022-10-25T02:42:52.891Z,99872.22
2022-10-25T02:45:19.794Z,99873.75
2022-10-25T02:47:46.649Z,99857.97
2022-10-25T02:50:13.801Z,99855.97
2022-10-25T02:52:40.706Z,99865.75
2022-10-25T02:55:07.742Z,99867.03
2022-10-25T02:57:36.309Z,99852.91
2022-10-25T03:00:05.790Z,99851.88
2022-10-25T03:02:32.536Z,99859.69
2022-10-25T03:04:59.295Z,99850.16
2022-10-25T03:07:26.117Z,99831.06
2022-10-25T03:09:52.843Z,99853.09
2022-10-25T03:12:19.550Z,99843.22
2022-10-25T03:14:46.415Z,99845.81
2022-10-25T03:17:13.123Z,99823.66
2022-10-25T03:19:39.845Z,99824.41
2022-10-25T03:22:06.746Z,99833.13
2022-10-25T03:24:33.444Z,99822.75
2022-10-25T03:27:00.634Z,99825.13
2022-10-25T03:29:27.464Z,99818.16
2022-10-25T03:31:54.177Z,99825.34
2022-10-25T03:34:20.905Z,99817.09
2022-10-25T03:36:47.680Z,99801.19
2022-10-25T03:39:14.504Z,99793.75
2022-10-25T03:41:41.272Z,99788.81
2022-10-25T03:44:08.081Z,99805.63
2022-10-25T03:46:34.878Z,99805.06
2022-10-25T03:49:01.599Z,99795.28
2022-10-25T03:51:28.369Z,99780.69
2022-10-25T03:53:55.061Z,99793.75
2022-10-25T03:56:21.800Z,99790.56
2022-10-25T03:58:48.633Z,99789.75
2022-10-25T04:01:15.505Z,99780.81
2022-10-25T04:03:45.214Z,99791.63
2022-10-25T04:06:12.329Z,99776.81
2022-10-25T04:08:39.316Z,99784.09
2022-10-25T04:11:06.062Z,99778.94
2022-10-25T04:13:32.888Z,99780.13
2022-10-25T04:15:59.645Z,99778.69
2022-10-25T04:18:26.338Z,99782.94
2022-10-25T04:20:53.179Z,99784.72
2022-10-25T04:23:19.918Z,99773.66
2022-10-25T04:25:46.648Z,99773.41
2022-10-25T04:28:13.608Z,99765.75
2022-10-25T04:30:40.363Z,99760.34
2022-10-25T04:33:07.139Z,99759.88
2022-10-25T04:35:34.035Z,99762.69
2022-10-25T04:38:00.775Z,99762.94
2022-10-25T04:40:27.470Z,99754.56
2022-10-25T04:42:54.965Z,99759.41
2022-10-25T04:45:21.715Z,99755.75
2022-10-25T04:47:48.429Z,99761.28
2022-10-25T04:50:15.272Z,99759.84
2022-10-25T04:52:41.960Z,99765.63
2022-10-25T04:55:09.008Z,99760.66
2022-10-25T04:57:35.826Z,99755.63
2022-10-25T05:00:02.964Z,99766.69
2022-10-25T05:02:29.843Z,99752.56
2022-10-25T05:04:56.793Z,99763.66
2022-10-25T05:07:23.619Z,99752.34
2022-10-25T05:09:50.328Z,99754.69
2022-10-25T05:12:17.207Z,99746.44
2022-10-25T05:14:44.352Z,99744.34
2022-10-25T05:17:11.078Z,99739.28
2022-10-25T05:19:37.980Z,99738.69
2022-10-25T05:22:04.681Z,99737.72
2022-10-25T05:24:31.426Z,99735.59
2022-10-25T05:26:58.294Z,99740.56
2022-10-25T05:29:25.051Z,99723.94
2022-10-25T05:31:51.740Z,99727.22
2022-10-25T05:34:18.490Z,99735.13
2022-10-25T05:36:45.170Z,99749.75
2022-10-25T05:39:11.930Z,99755.03
2022-10-25T05:41:38.797Z,99738.66
2022-10-25T05:44:06.376Z,99745.41
2022-10-25T05:46:33.172Z,99742.44
2022-10-25T05:49:00.412Z,99737.03
2022-10-25T05:51:37.318Z,99738.53
2022-10-25T05:54:10.685Z,99740.66
2022-10-25T05:56:38.425Z,99751.59
2022-10-25T05:59:10.183Z,99741.91
2022-10-25T06:01:42.082Z,99744.28
2022-10-25T06:04:09.601Z,99765.91
2022-10-25T06:06:38.086Z,99728.78
2022-10-25T06:09:06.121Z,99754.00
2022-10-25T06:11:33.420Z,99753.59
2022-10-25T06:14:00.159Z,99771.84
2022-10-25T06:16:27.036Z,99756.50
2022-10-25T06:18:54.724Z,99738.81
2022-10-25T06:21:24.509Z,99774.19
2022-10-25T06:23:52.228Z,99747.88
2022-10-25T06:26:24.923Z,99756.56
2022-10-25T06:28:53.561Z,99741.22
2022-10-25T06:31:20.985Z,99758.81
2022-10-25T06:33:48.072Z,99750.00
2022-10-25T06:36:20.037Z,99755.13
2022-10-25T06:38:47.618Z,99764.72
2022-10-25T06:41:21.403Z,99774.03
2022-10-25T06:43:49.305Z,99757.16
2022-10-25T06:46:22.132Z,99746.69
2022-10-25T06:48:50.017Z,99737.91
2022-10-25T06:51:16.784Z,99767.78
2022-10-25T06:53:43.937Z,99758.31
2022-10-25T06:56:14.739Z,99765.25
2022-10-25T06:58:42.036Z,99755.97
2022-10-25T07:01:14.792Z,99776.50
2022-10-25T07:03:42.689Z,99747.34
2022-10-25T07:06:15.228Z,99709.56
2022-10-25T07:08:44.768Z,99698.81
2022-10-25T07:11:18.516Z,99699.34
2022-10-25T07:13:46.025Z,99695.19
2022-10-25T07:16:15.529Z,99691.41
2022-10-25T07:18:43.034Z,99672.59
2022-10-25T07:21:20.282Z,99662.47
2022-10-25T07:23:47.925Z,99649.22
2022-10-25T07:26:17.148Z,99683.06
2022-10-25T07:28:46.293Z,99694.84
2022-10-25T07:31:21.323Z,99697.13
2022-10-25T07:33:49.483Z,99696.63
2022-10-25T07:36:16.453Z,99677.13
2022-10-25T07:38:43.265Z,99684.69
2022-10-25T07:41:10.733Z,99673.59
2022-10-25T07:43:37.631Z,99692.44
2022-10-25T07:46:05.650Z,99670.28
2022-10-25T07:48:32.781Z,99677.69
2022-10-25T07:51:06.861Z,99675.00
2022-10-25T07:53:33.625Z,99675.00
2022-10-25T07:56:00.391Z,99669.00
2022-10-25T07:58:27.300Z,99668.63
2022-10-25T08:01:00.507Z,99675.53
2022-10-25T08:03:27.336Z,99682.75
2022-10-25T08:05:54.071Z,99675.28
2022-10-25T08:08:23.287Z,99671.91
2022-10-25T08:10:50.536Z,99670.75
2022-10-25T08:13:17.415Z,99672.41
2022-10-25T08:15:55.298Z,99670.63
2022-10-25T08:18:23.532Z,99664.75
2022-10-25T08:21:02.473Z,99667.72
2022-10-25T08:23:31.880Z,99659.75
2022-10-25T08:25:59.182Z,99662.19
2022-10-25T08:28:26.205Z,99661.25
2022-10-25T08:30:55.577Z,99648.56
2022-10-25T08:33:23.158Z,99646.38
2022-10-25T08:35:49.898Z,99665.19
2022-10-25T08:38:16.738Z,99669.97
2022-10-25T08:40:46.497Z,99676.63
2022-10-25T08:43:22.611Z,99691.00
2022-10-25T08:45:58.508Z,99698.53
2022-10-25T08:48:33.197Z,99731.84
2022-10-25T08:51:04.770Z,99717.16
2022-10-25T08:53:38.704Z,99724.72
2022-10-25T08:56:16.603Z,99701.31
2022-10-25T08:58:51.441Z,99712.03
2022-10-25T09:01:28.707Z,99708.09
2022-10-25T09:03:56.019Z,99712.69
2022-10-25T09:06:34.605Z,99699.66
2022-10-25T09:09:25.243Z,99724.50
2022-10-25T09:11:54.722Z,99725.34
2022-10-25T09:14:26.058Z,99723.19
2022-10-25T09:17:01.355Z,99678.22
2022-10-25T09:19:39.284Z,99718.50
2022-10-25T09:22:14.139Z,99727.59
2022-10-25T09:24:59.979Z,99716.88
2022-10-25T09:27:26.639Z,99734.69
2022-10-25T09:30:07.340Z,99713.81
2022-10-25T09:32:45.075Z,99736.09
2022-10-25T09:35:23.275Z,99748.94
2022-10-25T09:37:55.665Z,99730.56
2022-10-25T09:40:28.433Z,99743.97
2022-10-25T09:42:59.249Z,99760.56
2022-10-25T09:45:31.448Z,99741.47
2022-10-25T09:48:06.267Z,99786.72
2022-10-25T09:50:43.994Z,99765.78
2022-10-25T09:53:14.858Z,99792.03
2022-10-25T09:55:56.425Z,99777.09
2022-10-25T09:58:26.143Z,99781.09
2022-10-25T10:00:56.608Z,99771.28
2022-10-25T10:03:28.310Z,99772.59
2022-10-25T10:05:59.213Z,99792.63
2022-10-25T10:08:26.483Z,99803.09
2022-10-25T10:10:55.186Z,99788.69
2022-10-25T10:13:45.097Z,99802.78
2022-10-25T10:16:23.905Z,99807.69
2022-10-25T10:18:50.696Z,99821.69
2022-10-25T10:21:20.681Z,99794.88
2022-10-25T10:24:01.499Z,99780.56
2022-10-25T10:26:32.359Z,99782.78
2022-10-25T10:29:20.113Z,99794.97
2022-10-25T10:31:50.430Z,99791.03
2022-10-25T10:34:27.819Z,99813.88
2022-10-25T10:37:12.625Z,99826.69
2022-10-25T10:40:00.210Z,99825.63
2022-10-25T10:42:36.499Z,99825.94
2022-10-25T10:45:09.054Z,99826.59
2022-10-25T10:47:37.284Z,99845.00
2022-10-25T10:50:33.064Z,99834.97
2022-10-25T10:53:17.952Z,99849.63
2022-10-25T10:55:53.072Z,99879.38
2022-10-25T10:58:27.697Z,99867.81
2022-10-25T11:01:00.864Z,99870.25
2022-10-25T11:03:48.653Z,99889.72
2022-10-25T11:06:34.352Z,99909.56
2022-10-25T11:09:16.223Z,99884.84
2022-10-25T11:11:43.213Z,99888.25
2022-10-25T11:14:17.357Z,99910.09
2022-10-25T11:16:56.280Z,99898.38
2022-10-25T11:19:41.931Z,99890.56
2022-10-25T11:22:17.577Z,99892.03
2022-10-25T11:25:09.876Z,99907.69
2022-10-25T11:27:57.613Z,99918.47
2022-10-25T11:30:30.396Z,99912.03
2022-10-25T11:33:06.403Z,99917.50
2022-10-25T11:35:42.957Z,99924.41
2022-10-25T11:38:34.555Z,99928.97
2022-10-25T11:41:26.019Z,99923.28
2022-10-25T11:44:30.958Z,99940.75
2022-10-25T11:47:43.438Z,99941.59
2022-10-25T11:50:40.100Z,99950.22
2022-10-25T11:53:35.618Z,99946.22
2022-10-25T11:56:16.828Z,99947.94
2022-10-25T11:59:04.776Z,99950.63
2022-10-25T12:01:46.813Z,99959.97
2022-10-25T12:04:37.786Z,99948.84
2022-10-25T12:07:13.455Z,99951.59
2022-10-25T12:10:17.252Z,99957.00
2022-10-25T12:12:58.540Z,99950.47
2022-10-25T12:15:34.736Z,99924.03
2022-10-25T12:18:02.313Z,99949.34
2022-10-25T12:20:30.235Z,99949.66
2022-10-25T12:23:03.826Z,99958.75
2022-10-25T12:25:45.384Z,99949.44
2022-10-25T12:28:44.173Z,99960.22
2022-10-25T12:31:19.924Z,99951.53
2022-10-25T12:33:53.745Z,99962.16
2022-10-25T12:36:36.421Z,99964.53
2022-10-25T12:39:11.307Z,99968.09
2022-10-25T12:41:40.366Z,99962.22
2022-10-25T12:44:40.721Z,99967.81
2022-10-25T12:47:38.461Z,99974.78
2022-10-25T12:50:21.317Z,99970.03
2022-10-25T12:53:22.030Z,99964.84
2022-10-25T12:55:54.797Z,99985.09
2022-10-25T12:58:24.661Z,99974.75
2022-10-25T13:01:34.794Z,99953.03
2022-10-25T13:04:41.346Z,99984.63
2022-10-25T13:07:09.810Z,99972.31
2022-10-25T13:09:38.582Z,99985.22
2022-10-25T13:12:08.511Z,100003.81
2022-10-25T13:14:39.077Z,99975.47
2022-10-25T13:17:20.566Z,99984.59
2022-10-25T13:19:55.017Z,99987.97
2022-10-25T13:22:37.487Z,99990.13
2022-10-25T13:25:13.404Z,100001.06
2022-10-25T13:28:15.655Z,99992.75
2022-10-25T13:30:44.266Z,99969.25
2022-10-25T13:33:18.589Z,99989.41
2022-10-25T13:35:45.467Z,99993.34
2022-10-25T13:38:22.143Z,99973.84
2022-10-25T13:41:10.397Z,99992.88
2022-10-25T13:44:01.091Z,99964.34
2022-10-25T13:46:41.612Z,99971.03
2022-10-25T13:49:32.630Z,99974.59
2022-10-25T13:52:05.434Z,99967.00
2022-10-25T13:54:44.506Z,99991.03
2022-10-25T13:57:48.791Z,99983.75
2022-10-25T14:00:26.511Z,99966.44
2022-10-25T14:03:08.788Z,99961.94
2022-10-25T14:05:56.677Z,99985.06
2022-10-25T14:08:46.431Z,99982.22
2022-10-25T14:11:16.387Z,99985.56
2022-10-25T14:13:42.925Z,99979.44
2022-10-25T14:16:21.078Z,99966.16
2022-10-25T14:18:49.782Z,99977.50
2022-10-25T14:21:16.829Z,99978.69
2022-10-25T14:23:44.046Z,99969.47
2022-10-25T14:26:16.065Z,99975.31
2022-10-25T14:28:43.197Z,99977.25
2022-10-25T14:31:18.457Z,99956.47
2022-10-25T14:33:53.066Z,99967.91
2022-10-25T14:36:27.854Z,99979.53
2022-10-25T14:38:56.084Z,99980.41
2022-10-25T14:41:34.812Z,99972.22
2022-10-25T14:44:19.842Z,99976.84
2022-10-25T14:46:46.578Z,99983.75
2022-10-25T14:49:13.399Z,99992.34
2022-10-25T14:51:42.737Z,99967.63
2022-10-25T14:54:12.606Z,99970.81
2022-10-25T14:56:49.205Z,99966.03
2022-10-25T14:59:27.991Z,99993.91
2022-10-25T15:02:01.398Z,99976.88
2022-10-25T15:04:33.991Z,99977.81
2022-10-25T15:07:02.830Z,99980.81
2022-10-25T15:09:42.353Z,99960.84
2022-10-25T15:12:12.772Z,99968.56
2022-10-25T15:14:39.415Z,99967.56
2022-10-25T15:17:19.053Z,99972.19
2022-10-25T15:19:59.696Z,99960.47
2022-10-25T15:22:40.196Z,99975.69
2022-10-25T15:25:30.394Z,99975.97
2022-10-25T15:28:09.270Z,99971.72
2022-10-25T15:30:47.897Z,99977.03
2022-10-25T15:33:29.029Z,99975.19
2022-10-25T15:35:59.380Z,99977.75
2022-10-25T15:38:47.970Z,99979.81
2022-10-25T15:41:18.292Z,99997.41
2022-10-25T15:43:45.165Z,99991.53
2022-10-25T15:46:20.558Z,99966.44
2022-10-25T15:48:48.555Z,99981.81
2022-10-25T15:51:15.573Z,99989.63
2022-10-25T15:53:42.340Z,99992.00
2022-10-25T15:56:16.617Z,99987.69
2022-10-25T15:58:43.392Z,99996.69
2022-10-25T16:01:10.571Z,99993.38
2022-10-25T16:03:37.686Z,100008.16
2022-10-25T16:06:04.745Z,99981.94
2022-10-25T16:08:31.598Z,99995.59
2022-10-25T16:10:58.970Z,99991.72
2022-10-25T16:13:35.523Z,100001.09
2022-10-25T16:16:11.809Z,99998.13
2022-10-25T16:18:43.351Z,99986.03
2022-10-25T16:21:10.411Z,99990.97
2022-10-25T16:23:37.155Z,100008.22
2022-10-25T16:26:04.067Z,100015.25
2022-10-25T16:28:31.024Z,100000.63
2022-10-25T16:30:57.782Z,100002.03
2022-10-25T16:33:24.561Z,100001.44
2022-10-25T16:35:51.348Z,100001.34
2022-10-25T16:38:18.067Z,99999.47
2022-10-25T16:40:44.770Z,100008.53
2022-10-25T16:43:12.525Z,100004.78
2022-10-25T16:45:39.249Z,100016.44
2022-10-25T16:48:06.448Z,100000.75
2022-10-25T16:50:34.522Z,100001.28
2022-10-25T16:53:09.374Z,100005.59
2022-10-25T16:55:36.232Z,99996.44
2022-10-25T16:58:03.074Z,100018.38
2022-10-25T17:00:35.948Z,100012.38
2022-10-25T17:03:03.235Z,100004.66
2022-10-25T17:05:33.106Z,100000.41
2022-10-25T17:07:59.714Z,100016.44
2022-10-25T17:10:27.228Z,100015.41
2022-10-25T17:13:01.585Z,100027.69
2022-10-25T17:15:28.493Z,100011.63
2022-10-25T17:17:55.183Z,100013.66
2022-10-25T17:20:22.358Z,100026.50
2022-10-25T17:22:50.130Z,100022.34
2022-10-25T17:25:17.435Z,100030.34
2022-10-25T17:27:48.023Z,100018.47
2022-10-25T17:30:16.609Z,100003.44
2022-10-25T17:32:43.369Z,100029.16
2022-10-25T17:35:10.088Z,100021.03
2022-10-25T17:37:36.909Z,100005.78
2022-10-25T17:40:04.091Z,100038.84
2022-10-25T17:42:30.833Z,100010.88
2022-10-25T17:44:57.673Z,100016.06
2022-10-25T17:47:24.431Z,100041.88
2022-10-25T17:49:51.209Z,100041.63
2022-10-25T17:52:18.033Z,100043.19
2022-10-25T17:54:45.105Z,100044.16
2022-10-25T17:57:11.792Z,100045.47
2022-10-25T17:59:38.628Z,100040.41
2022-10-25T18:02:05.437Z,100038.72
2022-10-25T18:04:45.810Z,100059.59
2022-10-25T18:07:19.151Z,100046.78
2022-10-25T18:09:45.836Z,100051.06
2022-10-25T18:12:12.732Z,100052.81
2022-10-25T18:14:39.545Z,100062.00
2022-10-25T18:17:06.702Z,100054.53
2022-10-25T18:19:33.597Z,100065.50
2022-10-25T18:22:00.961Z,100058.34
2022-10-25T18:24:30.707Z,100074.56
2022-10-25T18:26:57.616Z,100082.19
2022-10-25T18:29:24.527Z,100089.31
2022-10-25T18:31:51.591Z,100082.38
2022-10-25T18:34:18.904Z,100088.03
2022-10-25T18:36:45.837Z,100089.84
2022-10-25T18:39:12.548Z,100090.09
2022-10-25T18:41:41.001Z,100100.38
2022-10-25T18:44:14.177Z,100085.66
2022-10-25T18:46:42.334Z,100105.47
2022-10-25T18:49:12.618Z,100105.13
2022-10-25T18:51:40.712Z,100108.41
2022-10-25T18:54:10.122Z,100111.94
2022-10-25T18:56:37.062Z,100106.28
2022-10-25T18:59:04.182Z,100114.22
2022-10-25T19:01:33.795Z,100102.19
2022-10-25T19:04:03.742Z,100107.28
2022-10-25T19:06:30.884Z,100087.75
2022-10-25T19:08:57.623Z,100119.66
2022-10-25T19:11:24.564Z,100128.28
2022-10-25T19:13:55.750Z,100115.56
2022-10-25T19:16:23.296Z,100113.69
2022-10-25T19:18:50.161Z,100142.13
2022-10-25T19:21:18.567Z,100100.94
2022-10-25T19:23:46.796Z,100111.56
2022-10-25T19:26:19.230Z,100123.94
2022-10-25T19:28:46.441Z,100137.78
2022-10-25T19:31:16.940Z,100139.06
2022-10-25T19:33:48.131Z,100115.81
2022-10-25T19:36:16.221Z,100133.88
2022-10-25T19:38:45.131Z,100143.16
2022-10-25T19:41:16.601Z,100132.88
2022-10-25T19:43:43.837Z,100129.22
2022-10-25T19:46:12.158Z,100128.63
2022-10-25T19:48:39.101Z,100130.63
2022-10-25T19:51:11.538Z,100128.84
2022-10-25T19:53:38.762Z,100166.97
2022-10-25T19:56:14.761Z,100131.25
2022-10-25T19:58:42.383Z,100140.56
2022-10-25T20:01:15.745Z,100140.56
2022-10-25T20:03:45.099Z,100126.91
2022-10-25T20:06:20.026Z,100117.91
2022-10-25T20:08:50.186Z,100148.69
2022-10-25T20:11:18.471Z,100153.41
2022-10-25T20:13:45.738Z,100144.91
2022-10-25T20:16:14.220Z,100137.94
2022-10-25T20:18:42.338Z,100128.38
2022-10-25T20:21:13.340Z,100140.22
2022-10-25T20:23:41.672Z,100138.47
2022-10-25T20:26:19.203Z,100132.75
2022-10-25T20:28:47.028Z,100148.91
2022-10-25T20:31:14.631Z,100141.59
2022-10-25T20:33:41.684Z,100140.91
2022-10-25T20:36:13.311Z,100139.41
2022-10-25T20:38:40.755Z,100142.81
2022-10-25T20:41:09.081Z,100149.56
2022-10-25T20:43:36.752Z,100148.59
2022-10-25T20:46:04.069Z,100140.00
2022-10-25T20:48:31.058Z,100144.50
2022-10-25T20:50:57.875Z,100163.13
2022-10-25T20:53:24.582Z,100166.97
2022-10-25T20:55:51.434Z,100168.03
2022-10-25T20:58:21.374Z,100163.84
2022-10-25T21:00:48.655Z,100154.38
2022-10-25T21:03:16.534Z,100142.94
2022-10-25T21:05:44.113Z,100150.06
2022-10-25T21:08:12.545Z,100150.91
2022-10-25T21:10:40.304Z,100155.25
2022-10-25T21:13:07.717Z,100153.56
2022-10-25T21:15:34.457Z,100166.06
2022-10-25T21:18:01.544Z,100170.19
2022-10-25T21:20:28.834Z,100162.56
2022-10-25T21:22:56.497Z,100164.41
2022-10-25T21:25:23.763Z,100128.41
2022-10-25T21:27:54.619Z,100166.25
2022-10-25T21:30:21.661Z,100169.22
2022-10-25T21:32:48.607Z,100164.88
2022-10-25T21:35:15.585Z,100158.56
2022-10-25T21:37:45.405Z,100155.69
2022-10-25T21:40:16.208Z,100176.13
2022-10-25T21:42:43.189Z,100171.44
2022-10-25T21:45:10.887Z,100170.41
2022-10-25T21:47:37.846Z,100158.28
2022-10-25T21:50:05.995Z,100162.91
2022-10-25T21:52:32.836Z,100172.84
2022-10-25T21:54:59.784Z,100179.81
2022-10-25T21:57:26.490Z,100176.78
2022-10-25T21:59:53.195Z,100147.75
2022-10-25T22:02:20.076Z,100154.44
2022-10-25T22:04:46.852Z,100166.41
2022-10-25T22:07:14.995Z,100173.69
2022-10-25T22:09:41.761Z,100185.00
2022-10-25T22:12:08.481Z,100163.03
2022-10-25T22:14:35.197Z,100170.81
2022-10-25T22:17:02.019Z,100155.88
2022-10-25T22:19:28.903Z,100170.59
2022-10-25T22:21:55.618Z,100170.28
2022-10-25T22:24:22.455Z,100173.56
2022-10-25T22:26:51.458Z,100154.13
2022-10-25T22:29:18.229Z,100173.44
2022-10-25T22:31:45.095Z,100171.47
2022-10-25T22:34:11.810Z,100171.25
2022-10-25T22:36:40.546Z,100147.09
2022-10-25T22:39:08.753Z,100160.34
2022-10-25T22:41:36.179Z,100167.34
2022-10-25T22:44:03.193Z,100187.56
2022-10-25T22:46:36.534Z,100164.31
2022-10-25T22:49:09.398Z,100163.06
2022-10-25T22:51:38.056Z,100154.34
2022-10-25T22:54:05.181Z,100169.59
2022-10-25T22:56:32.416Z,100168.41
2022-10-25T22:59:02.740Z,100161.75
2022-10-25T23:01:38.703Z,100173.19
2022-10-25T23:04:08.953Z,100170.53
2022-10-25T23:06:38.600Z,100169.97
2022-10-25T23:09:09.343Z,100179.91
2022-10-25T23:11:38.115Z,100163.22
2022-10-25T23:14:05.559Z,100182.13
2022-10-25T23:16:32.527Z,100186.91
2022-10-25T23:18:59.536Z,100177.16
2022-10-25T23:21:30.338Z,100187.00
2022-10-25T23:23:59.325Z,100173.97
2022-10-25T23:26:34.154Z,100176.59
2022-10-25T23:29:01.612Z,100182.13
2022-10-25T23:31:29.601Z,100181.63
2022-10-25T23:33:58.193Z,100177.28
2022-10-25T23:36:28.173Z,100189.53
2022-10-25T23:38:55.929Z,100189.13
2022-10-25T23:41:23.474Z,100185.00
2022-10-25T23:43:50.452Z,100194.69
2022-10-25T23:46:17.197Z,100176.31
2022-10-25T23:48:44.166Z,100186.16
2022-10-25T23:51:13.477Z,100183.06
2022-10-25T23:53:40.646Z,100185.56
2022-10-25T23:56:09.364Z,100184.91
2022-10-25T23:58:36.567Z,100193.69
